Terminal Aerodrome Forecast
Issued by NWS

Home | Current Version | Previous Version | Text Only | Print | Product List | Glossary Off
Versions: 1 2 3 4 5 6 7 8 9 10 11 12 13 14 15 16 17 18 19 20 21 22 23 24 25 26 27 28 29

000
FTUS41 KGYX 252028 AAA
TAFRKD
TAF AMD
KRKD 252028Z 2520/2618 06007KT P6SM -RA OVC060
     FM252300 07016G24KT 3SM -DZ BR BKN005 OVC012
     FM260200 07015G22KT 1 1/2SM -RA BR OVC007
     FM261500 06008KT 1 1/2SM -RA BR OVC005
      AMD LTD TO CLD VIS AND WIND=

USA.gov is the U.S. government's official web portal to all federal, state and local government web resources and services.